North New Portland, Maine
Current Conditions -  °F | °C
As of 2:15 AM on Sunday 26 Oct 2014 (Local Time) from KWVL Reporting Station
Overcast Overcast  
Wind Chill: 46°   Ceiling: 7500
Heat Index: 46°   Visibility: 3mi
Dew Point: 43°   Wind: 0mph
Humidity: 87%   Direction: NA
Pressure: 29.37"   Gusts: NA
Location:  44.92°N, 70.02°W
Report Text: KWVL 260615Z 00000KT 3SM SCT055 OVC075 08/06 A2937 RMK AO1
Loading
Personal Weather Stations






























Interactive Weather Map
Tropical Storm Tracking
New forecast layout! Learn more

10-Day Weather Forecast

Advertisements
Track Severe Weather on mobile